Time;durP1;ratioP1;P1;durP2;ratioP2;P2;SDS_P1;SDS_P2;PMS_P1;PMS_P2;Temp;Humidity;BMP_temperature;BMP_pressure;BME280_temperature;BME280_humidity;BME280_pressure;Samples;Min_cycle;Max_cycle;Signal;HPM_P1;HPM_P2
2022/08/13 00:00:59;;;;;;;0.00;0.00;;;;;;;;;;5079269;28;20246;-69
2022/08/13 00:03:26;;;;;;;0.10;0.10;;;;;;;;;;5092316;28;20211;-68
2022/08/13 00:05:54;;;;;;;0.00;0.00;;;;;;;;;;5079311;28;20297;-70
2022/08/13 00:08:22;;;;;;;0.00;0.00;;;;;;;;;;5092749;28;20272;-68
2022/08/13 00:10:49;;;;;;;0.00;0.00;;;;;;;;;;5079061;28;20254;-69
2022/08/13 00:13:18;;;;;;;0.00;0.00;;;;;;;;;;5093225;28;20205;-69
2022/08/13 00:15:45;;;;;;;0.00;0.00;;;;;;;;;;5078245;28;20557;-70
2022/08/13 00:18:14;;;;;;;0.00;0.00;;;;;;;;;;5093492;28;20269;-69
2022/08/13 00:20:42;;;;;;;0.00;0.00;;;;;;;;;;5077099;28;20242;-67
2022/08/13 00:23:10;;;;;;;0.00;0.00;;;;;;;;;;5093850;28;20367;-69
2022/08/13 00:25:37;;;;;;;0.10;0.10;;;;;;;;;;5077263;28;20245;-68
2022/08/13 00:28:04;;;;;;;0.00;0.00;;;;;;;;;;5094435;28;20437;-69
2022/08/13 00:30:33;;;;;;;0.00;0.00;;;;;;;;;;5076657;28;20238;-70
2022/08/13 00:33:00;;;;;;;0.00;0.00;;;;;;;;;;5094834;28;20215;-68
2022/08/13 00:35:28;;;;;;;0.00;0.00;;;;;;;;;;5076034;28;20246;-68
2022/08/13 00:37:56;;;;;;;0.00;0.00;;;;;;;;;;5095523;28;20191;-67
2022/08/13 00:40:23;;;;;;;0.00;0.00;;;;;;;;;;5075559;28;20211;-70
2022/08/13 00:42:50;;;;;;;0.00;0.00;;;;;;;;;;5096545;28;20192;-68
2022/08/13 00:45:17;;;;;;;0.00;0.00;;;;;;;;;;5074878;28;20409;-69
2022/08/13 00:50:28;;;;;;;0.00;0.00;;;;;;;;;;5044571;28;20255;-68
2022/08/13 00:52:56;;;;;;;0.00;0.00;;;;;;;;;;5095823;28;20378;-69
2022/08/13 00:55:24;;;;;;;0.00;0.00;;;;;;;;;;5075386;28;20241;-68
2022/08/13 00:57:50;;;;;;;0.10;0.10;;;;;;;;;;5095826;28;20195;-69
2022/08/13 01:00:18;;;;;;;0.00;0.00;;;;;;;;;;5074031;28;20227;-68
2022/08/13 01:02:46;;;;;;;0.00;0.00;;;;;;;;;;5096703;28;20198;-68
2022/08/13 01:05:12;;;;;;;0.00;0.00;;;;;;;;;;5073828;28;20275;-68
2022/08/13 01:07:41;;;;;;;0.00;0.00;;;;;;;;;;5097139;28;20553;-69
2022/08/13 01:10:08;;;;;;;0.00;0.00;;;;;;;;;;5073035;28;20283;-69
2022/08/13 01:12:36;;;;;;;0.65;0.65;;;;;;;;;;5097854;28;20460;-68
2022/08/13 01:15:03;;;;;;;0.00;0.00;;;;;;;;;;5082959;28;20211;-69
2022/08/13 01:17:30;;;;;;;0.00;0.00;;;;;;;;;;5070824;28;20276;-69
2022/08/13 01:19:57;;;;;;;0.00;0.00;;;;;;;;;;5082641;28;20239;-68
2022/08/13 01:22:25;;;;;;;0.00;0.00;;;;;;;;;;5088009;28;20449;-68
2022/08/13 01:24:52;;;;;;;0.00;0.00;;;;;;;;;;5082796;28;20389;-68
2022/08/13 01:27:22;;;;;;;0.00;0.00;;;;;;;;;;5087755;28;20244;-69
2022/08/13 01:29:48;;;;;;;0.00;0.00;;;;;;;;;;5082647;28;20203;-68
2022/08/13 01:32:15;;;;;;;0.00;0.00;;;;;;;;;;5086795;28;20248;-68
2022/08/13 01:34:42;;;;;;;0.00;0.00;;;;;;;;;;5082569;28;20250;-69
2022/08/13 01:37:09;;;;;;;0.00;0.00;;;;;;;;;;5087804;28;20301;-70
2022/08/13 01:39:38;;;;;;;0.00;0.00;;;;;;;;;;5082575;28;20275;-68
2022/08/13 01:42:04;;;;;;;0.00;0.00;;;;;;;;;;5087622;28;20261;-70
2022/08/13 01:44:31;;;;;;;0.00;0.00;;;;;;;;;;5082630;28;20422;-69
2022/08/13 01:52:33;;;;;;;0.00;0.00;;;;;;;;;;5087630;28;20264;-69
2022/08/13 01:55:01;;;;;;;0.00;0.00;;;;;;;;;;5081967;28;20398;-68
2022/08/13 01:57:27;;;;;;;0.00;0.00;;;;;;;;;;5087536;28;20245;-69
2022/08/13 01:59:54;;;;;;;0.00;0.00;;;;;;;;;;5082413;28;20208;-68
2022/08/13 02:02:23;;;;;;;0.00;0.00;;;;;;;;;;5087201;28;20357;-68
2022/08/13 02:04:49;;;;;;;0.00;0.00;;;;;;;;;;5081750;28;20218;-68
2022/08/13 02:07:16;;;;;;;0.00;0.00;;;;;;;;;;5087332;28;20238;-69
2022/08/13 02:09:43;;;;;;;0.00;0.00;;;;;;;;;;5082064;28;20454;-69
2022/08/13 02:12:13;;;;;;;0.00;0.00;;;;;;;;;;5087315;28;20576;-74
2022/08/13 02:14:42;;;;;;;0.00;0.00;;;;;;;;;;5082087;28;20278;-73
2022/08/13 02:17:24;;;;;;;0.00;0.00;;;;;;;;;;5087183;28;20562;-75
2022/08/13 02:19:51;;;;;;;0.00;0.00;;;;;;;;;;5081373;28;20592;-74
2022/08/13 02:22:17;;;;;;;0.00;0.00;;;;;;;;;;5086927;28;20303;-73
2022/08/13 02:24:48;;;;;;;0.10;0.10;;;;;;;;;;5082066;28;20242;-75
2022/08/13 02:27:20;;;;;;;0.00;0.00;;;;;;;;;;5087196;28;20242;-71
2022/08/13 02:29:46;;;;;;;0.00;0.00;;;;;;;;;;5081859;28;20249;-69
2022/08/13 02:32:12;;;;;;;0.00;0.00;;;;;;;;;;5087179;28;20305;-71
2022/08/13 02:34:39;;;;;;;0.00;0.00;;;;;;;;;;5081819;28;20203;-70
2022/08/13 02:37:06;;;;;;;0.00;0.00;;;;;;;;;;5086949;28;20245;-70
2022/08/13 02:39:32;;;;;;;0.00;0.00;;;;;;;;;;5081549;28;20206;-70
2022/08/13 02:41:57;;;;;;;0.00;0.00;;;;;;;;;;5085947;28;20287;-69
2022/08/13 02:44:26;;;;;;;0.00;0.00;;;;;;;;;;5084435;28;20382;-69
2022/08/13 02:46:52;;;;;;;0.00;0.00;;;;;;;;;;5089062;28;20238;-69
2022/08/13 02:49:21;;;;;;;0.00;0.00;;;;;;;;;;5086814;28;20231;-69
2022/08/13 02:51:48;;;;;;;0.00;0.00;;;;;;;;;;5088056;28;20565;-69
2022/08/13 02:54:17;;;;;;;0.00;0.00;;;;;;;;;;5087485;28;20208;-69
2022/08/13 02:56:43;;;;;;;0.00;0.00;;;;;;;;;;5087602;28;20246;-69
2022/08/13 02:59:10;;;;;;;0.00;0.00;;;;;;;;;;5087792;28;20206;-70
2022/08/13 03:01:39;;;;;;;0.00;0.00;;;;;;;;;;5086239;28;20238;-69
2022/08/13 03:04:06;;;;;;;0.00;0.00;;;;;;;;;;5088507;28;20235;-70
2022/08/13 03:06:32;;;;;;;0.00;0.00;;;;;;;;;;5085953;28;20489;-70
2022/08/13 03:09:01;;;;;;;0.00;0.00;;;;;;;;;;5088824;28;20250;-70
2022/08/13 03:11:28;;;;;;;0.00;0.00;;;;;;;;;;5085259;28;20246;-70
2022/08/13 03:13:56;;;;;;;0.00;0.00;;;;;;;;;;5089927;28;20214;-70
2022/08/13 03:16:24;;;;;;;0.00;0.00;;;;;;;;;;5084551;28;20249;-69
2022/08/13 03:18:53;;;;;;;0.00;0.00;;;;;;;;;;5089764;28;20467;-70
2022/08/13 03:21:20;;;;;;;0.00;0.00;;;;;;;;;;5083539;28;20238;-70
2022/08/13 03:23:46;;;;;;;0.00;0.00;;;;;;;;;;5090385;28;20426;-70
2022/08/13 03:26:13;;;;;;;0.00;0.00;;;;;;;;;;5082955;28;20239;-69
2022/08/13 03:28:40;;;;;;;0.00;0.00;;;;;;;;;;5091189;28;20224;-69
2022/08/13 03:31:06;;;;;;;0.00;0.00;;;;;;;;;;5081932;28;20491;-69
2022/08/13 03:33:33;;;;;;;0.00;0.00;;;;;;;;;;5092004;28;20204;-70
2022/08/13 03:36:00;;;;;;;0.00;0.00;;;;;;;;;;5081050;28;20238;-69
2022/08/13 03:38:27;;;;;;;0.00;0.00;;;;;;;;;;5092367;28;20212;-70
2022/08/13 03:41:11;;;;;;;0.00;0.00;;;;;;;;;;5080284;28;20245;-70
2022/08/13 03:43:37;;;;;;;0.00;0.00;;;;;;;;;;5091341;28;20203;-69
2022/08/13 03:46:03;;;;;;;0.00;0.00;;;;;;;;;;5081562;28;20284;-70
2022/08/13 03:48:30;;;;;;;0.00;0.00;;;;;;;;;;5091891;28;20239;-70
2022/08/13 03:51:00;;;;;;;0.00;0.00;;;;;;;;;;5080397;28;20242;-70
2022/08/13 03:53:29;;;;;;;0.00;0.00;;;;;;;;;;5092355;28;20191;-70
2022/08/13 03:55:58;;;;;;;0.00;0.00;;;;;;;;;;5079088;28;20310;-71
2022/08/13 03:58:26;;;;;;;0.00;0.00;;;;;;;;;;5092181;28;20505;-70
2022/08/13 04:00:53;;;;;;;0.00;0.00;;;;;;;;;;5078385;28;20550;-70
2022/08/13 04:03:20;;;;;;;0.00;0.00;;;;;;;;;;5093906;28;20213;-70
2022/08/13 04:05:48;;;;;;;0.00;0.00;;;;;;;;;;5077474;28;20258;-70
2022/08/13 04:08:15;;;;;;;0.00;0.00;;;;;;;;;;5094863;28;20227;-70
2022/08/13 04:10:43;;;;;;;0.00;0.00;;;;;;;;;;5078039;28;20250;-70
2022/08/13 04:13:13;;;;;;;0.00;0.00;;;;;;;;;;5094266;28;20271;-71
2022/08/13 04:15:42;;;;;;;0.00;0.00;;;;;;;;;;5078139;28;20304;-69
2022/08/13 04:18:08;;;;;;;0.00;0.00;;;;;;;;;;5094318;28;20247;-71
2022/08/13 04:20:37;;;;;;;0.00;0.00;;;;;;;;;;5076843;28;20310;-69
2022/08/13 04:23:09;;;;;;;0.00;0.00;;;;;;;;;;5094966;28;20464;-70
2022/08/13 04:25:36;;;;;;;0.00;0.00;;;;;;;;;;5076823;28;20242;-70
2022/08/13 04:28:05;;;;;;;0.00;0.00;;;;;;;;;;5094900;28;20502;-70
2022/08/13 04:30:40;;;;;;;0.00;0.00;;;;;;;;;;5076892;28;20242;-70
2022/08/13 04:33:09;;;;;;;0.00;0.00;;;;;;;;;;5093780;28;20252;-70
2022/08/13 04:35:36;;;;;;;0.00;0.00;;;;;;;;;;5076836;28;20245;-69
2022/08/13 04:38:06;;;;;;;0.00;0.00;;;;;;;;;;5094496;28;20211;-69
2022/08/13 04:40:32;;;;;;;0.00;0.00;;;;;;;;;;5076947;28;20504;-69
2022/08/13 04:42:59;;;;;;;0.00;0.00;;;;;;;;;;5094780;28;20202;-70
2022/08/13 04:45:29;;;;;;;0.00;0.00;;;;;;;;;;5075821;28;20598;-70
2022/08/13 04:47:58;;;;;;;0.00;0.00;;;;;;;;;;5095458;28;20235;-69
2022/08/13 04:50:25;;;;;;;0.00;0.00;;;;;;;;;;5075409;28;20773;-70
2022/08/13 04:52:51;;;;;;;0.00;0.00;;;;;;;;;;5095438;28;20226;-70
2022/08/13 04:55:18;;;;;;;0.00;0.00;;;;;;;;;;5074710;28;20218;-70
2022/08/13 04:57:45;;;;;;;0.00;0.00;;;;;;;;;;5096846;28;20192;-70
2022/08/13 05:00:11;;;;;;;0.00;0.00;;;;;;;;;;5073706;28;20200;-70
2022/08/13 05:02:40;;;;;;;0.00;0.00;;;;;;;;;;5097506;28;20191;-70
2022/08/13 05:05:07;;;;;;;0.00;0.00;;;;;;;;;;5072977;28;20397;-70
2022/08/13 05:07:34;;;;;;;0.00;0.00;;;;;;;;;;5097632;28;20212;-70
2022/08/13 05:10:00;;;;;;;0.00;0.00;;;;;;;;;;5082564;28;20231;-69
2022/08/13 05:12:27;;;;;;;0.00;0.00;;;;;;;;;;5087972;28;20249;-69
2022/08/13 05:14:53;;;;;;;0.00;0.00;;;;;;;;;;5082157;28;20404;-69
2022/08/13 05:17:19;;;;;;;0.00;0.00;;;;;;;;;;5088025;28;20268;-69
2022/08/13 05:19:47;;;;;;;0.00;0.00;;;;;;;;;;5082581;28;20244;-70
2022/08/13 05:22:14;;;;;;;0.08;0.08;;;;;;;;;;5087903;28;20242;-69
2022/08/13 05:24:41;;;;;;;0.00;0.00;;;;;;;;;;5082718;28;20383;-69
2022/08/13 05:27:09;;;;;;;0.00;0.00;;;;;;;;;;5088190;28;20242;-68
2022/08/13 05:29:37;;;;;;;0.10;0.10;;;;;;;;;;5082391;28;20223;-68
2022/08/13 05:32:04;;;;;;;0.10;0.10;;;;;;;;;;5087696;28;20249;-69
2022/08/13 05:34:31;;;;;;;0.00;0.00;;;;;;;;;;5082340;28;20442;-70
2022/08/13 05:36:59;;;;;;;0.00;0.00;;;;;;;;;;5086593;28;20297;-70
2022/08/13 05:39:25;;;;;;;0.00;0.00;;;;;;;;;;5083136;28;20210;-69
2022/08/13 05:41:51;;;;;;;0.00;0.00;;;;;;;;;;5085936;28;20238;-70
2022/08/13 05:44:18;;;;;;;0.00;0.00;;;;;;;;;;5083738;28;20503;-70
2022/08/13 05:46:44;;;;;;;0.05;0.05;;;;;;;;;;5084908;28;20238;-70
2022/08/13 05:49:11;;;;;;;0.00;0.00;;;;;;;;;;5084717;28;20455;-71
2022/08/13 05:51:37;;;;;;;0.00;0.00;;;;;;;;;;5084069;28;20547;-69
2022/08/13 05:54:07;;;;;;;0.00;0.00;;;;;;;;;;5085654;28;20211;-68
2022/08/13 05:56:36;;;;;;;0.00;0.00;;;;;;;;;;5083471;28;20254;-74
2022/08/13 05:59:03;;;;;;;0.00;0.00;;;;;;;;;;5085315;28;20199;-73
2022/08/13 06:04:14;;;;;;;0.00;0.00;;;;;;;;;;5085286;28;20262;-72
2022/08/13 06:06:40;;;;;;;0.00;0.00;;;;;;;;;;5084132;28;20265;-74
2022/08/13 06:09:08;;;;;;;0.00;0.00;;;;;;;;;;5085146;28;20255;-74
2022/08/13 06:11:35;;;;;;;0.00;0.00;;;;;;;;;;5083786;28;20408;-74
2022/08/13 06:14:02;;;;;;;0.00;0.00;;;;;;;;;;5085943;28;20382;-73
2022/08/13 06:16:30;;;;;;;0.00;0.00;;;;;;;;;;5082468;28;20424;-73
2022/08/13 06:18:57;;;;;;;0.00;0.00;;;;;;;;;;5087778;28;20429;-73
2022/08/13 06:21:24;;;;;;;0.00;0.00;;;;;;;;;;5085583;28;20309;-73
2022/08/13 06:23:50;;;;;;;0.00;0.00;;;;;;;;;;5090888;28;20203;-74
2022/08/13 06:26:20;;;;;;;0.00;0.00;;;;;;;;;;5084942;28;20242;-74
2022/08/13 06:28:46;;;;;;;0.00;0.00;;;;;;;;;;5091640;28;20207;-74
2022/08/13 06:31:16;;;;;;;0.00;0.00;;;;;;;;;;5084156;28;20239;-73
2022/08/13 06:33:43;;;;;;;0.00;0.00;;;;;;;;;;5091840;28;20195;-74
2022/08/13 06:36:11;;;;;;;0.00;0.00;;;;;;;;;;5083729;28;20305;-75
2022/08/13 06:38:38;;;;;;;0.00;0.00;;;;;;;;;;5092397;28;20270;-74
2022/08/13 06:41:06;;;;;;;0.00;0.00;;;;;;;;;;5082890;28;20297;-75
2022/08/13 06:43:35;;;;;;;0.00;0.00;;;;;;;;;;5093058;28;20211;-75
2022/08/13 06:46:05;;;;;;;0.00;0.00;;;;;;;;;;5082308;28;20239;-74
2022/08/13 06:48:32;;;;;;;0.00;0.00;;;;;;;;;;5093138;28;20370;-74
2022/08/13 06:50:59;;;;;;;0.00;0.00;;;;;;;;;;5081890;28;20246;-75
2022/08/13 06:53:25;;;;;;;0.00;0.00;;;;;;;;;;5093506;28;20204;-74
2022/08/13 06:55:52;;;;;;;0.00;0.00;;;;;;;;;;5081058;28;20238;-75
2022/08/13 06:58:22;;;;;;;0.00;0.00;;;;;;;;;;5094263;28;20388;-75
2022/08/13 07:00:52;;;;;;;0.00;0.00;;;;;;;;;;5080005;28;20368;-74
2022/08/13 07:03:18;;;;;;;0.00;0.00;;;;;;;;;;5094254;28;20374;-75
2022/08/13 07:05:44;;;;;;;0.00;0.00;;;;;;;;;;5079701;28;20254;-74
2022/08/13 07:08:12;;;;;;;0.00;0.00;;;;;;;;;;5094508;28;20208;-74
2022/08/13 07:10:40;;;;;;;0.00;0.00;;;;;;;;;;5078637;28;20237;-74
2022/08/13 07:13:06;;;;;;;0.00;0.00;;;;;;;;;;5095556;28;20274;-74
2022/08/13 07:15:33;;;;;;;0.00;0.00;;;;;;;;;;5077979;28;20553;-74
2022/08/13 07:18:02;;;;;;;0.00;0.00;;;;;;;;;;5096124;28;20227;-74
2022/08/13 07:20:28;;;;;;;0.00;0.00;;;;;;;;;;5076836;28;20502;-74
2022/08/13 07:22:55;;;;;;;0.00;0.00;;;;;;;;;;5096689;28;20203;-74
2022/08/13 07:25:22;;;;;;;0.00;0.00;;;;;;;;;;5076353;28;20218;-75
2022/08/13 07:27:50;;;;;;;0.00;0.00;;;;;;;;;;5097917;28;20479;-74
2022/08/13 07:30:16;;;;;;;0.00;0.00;;;;;;;;;;5075813;28;20224;-75
2022/08/13 07:32:43;;;;;;;0.00;0.00;;;;;;;;;;5098207;28;20282;-74
2022/08/13 07:35:11;;;;;;;0.00;0.00;;;;;;;;;;5074639;28;20278;-74
2022/08/13 07:37:37;;;;;;;0.00;0.00;;;;;;;;;;5098907;28;20223;-75
2022/08/13 07:40:04;;;;;;;0.00;0.00;;;;;;;;;;5084320;28;20199;-75
2022/08/13 07:42:38;;;;;;;0.00;0.00;;;;;;;;;;5072349;28;20226;-74
2022/08/13 07:45:05;;;;;;;0.00;0.00;;;;;;;;;;5084102;28;20211;-75
2022/08/13 07:47:31;;;;;;;0.00;0.00;;;;;;;;;;5072205;28;20214;-75
2022/08/13 07:50:01;;;;;;;0.00;0.00;;;;;;;;;;5083940;28;20290;-75
2022/08/13 07:52:29;;;;;;;0.00;0.00;;;;;;;;;;5089205;28;20259;-74
2022/08/13 07:54:58;;;;;;;0.00;0.00;;;;;;;;;;5083839;28;20410;-74
2022/08/13 07:57:27;;;;;;;0.00;0.00;;;;;;;;;;5089322;28;20243;-75
2022/08/13 07:59:54;;;;;;;0.00;0.00;;;;;;;;;;5083666;28;20200;-75
2022/08/13 08:02:20;;;;;;;0.00;0.00;;;;;;;;;;5089115;28;20569;-73
2022/08/13 08:04:48;;;;;;;0.00;0.00;;;;;;;;;;5084373;28;20257;-75
2022/08/13 08:07:14;;;;;;;0.00;0.00;;;;;;;;;;5088822;28;20262;-73
2022/08/13 08:09:42;;;;;;;0.00;0.00;;;;;;;;;;5082940;28;20227;-73
2022/08/13 08:14:53;;;;;;;0.00;0.00;;;;;;;;;;5083898;28;20214;-75
2022/08/13 08:17:20;;;;;;;0.00;0.00;;;;;;;;;;5088563;28;20482;-75
2022/08/13 08:19:47;;;;;;;0.00;0.00;;;;;;;;;;5083716;28;20341;-75
2022/08/13 08:22:15;;;;;;;0.00;0.00;;;;;;;;;;5089821;28;20242;-74
2022/08/13 08:24:47;;;;;;;0.00;0.00;;;;;;;;;;5083685;28;20270;-74
2022/08/13 08:27:16;;;;;;;0.00;0.00;;;;;;;;;;5088449;28;20246;-73
2022/08/13 08:29:43;;;;;;;0.00;0.00;;;;;;;;;;5083303;28;20284;-75
2022/08/13 08:32:09;;;;;;;0.00;0.00;;;;;;;;;;5088221;28;20301;-74
2022/08/13 08:34:37;;;;;;;0.00;0.00;;;;;;;;;;5083281;28;20227;-76
2022/08/13 08:37:03;;;;;;;0.00;0.00;;;;;;;;;;5088060;28;20347;-75
2022/08/13 08:45:02;;;;;;;0.00;0.00;;;;;;;;;;5083074;28;20205;-75
2022/08/13 08:47:29;;;;;;;0.00;0.00;;;;;;;;;;5088238;28;20254;-74
2022/08/13 08:49:57;;;;;;;0.00;0.00;;;;;;;;;;5083129;28;20235;-74
2022/08/13 08:53:19;;;;;;;0.00;0.00;;;;;;;;;;5088026;28;20234;-74
2022/08/13 08:55:11;;;;;;;0.00;0.00;;;;;;;;;;5073721;28;20207;-74
2022/08/13 08:57:39;;;;;;;0.00;0.00;;;;;;;;;;5097340;28;20196;-75
2022/08/13 09:00:06;;;;;;;0.00;0.00;;;;;;;;;;5079231;28;20222;-73
2022/08/13 09:02:33;;;;;;;0.00;0.00;;;;;;;;;;5097620;28;20291;-74
2022/08/13 09:05:01;;;;;;;0.00;0.00;;;;;;;;;;5082656;28;20210;-74
2022/08/13 09:07:29;;;;;;;0.00;0.00;;;;;;;;;;5087705;28;20254;-74
2022/08/13 09:10:01;;;;;;;0.00;0.00;;;;;;;;;;5082778;28;20338;-75
2022/08/13 09:12:28;;;;;;;0.00;0.00;;;;;;;;;;5087711;28;20452;-75
2022/08/13 09:14:57;;;;;;;0.00;0.00;;;;;;;;;;5082549;28;20203;-74
2022/08/13 09:17:23;;;;;;;0.00;0.00;;;;;;;;;;5087707;28;20271;-70
2022/08/13 09:19:50;;;;;;;0.00;0.00;;;;;;;;;;5082435;28;20227;-69
2022/08/13 09:22:20;;;;;;;0.00;0.00;;;;;;;;;;5087543;28;20307;-69
2022/08/13 09:24:47;;;;;;;0.00;0.00;;;;;;;;;;5082185;28;20246;-69
2022/08/13 09:27:15;;;;;;;0.00;0.00;;;;;;;;;;5087197;28;20250;-69
2022/08/13 09:29:42;;;;;;;0.00;0.00;;;;;;;;;;5082242;28;20211;-69
2022/08/13 09:32:10;;;;;;;0.00;0.00;;;;;;;;;;5087312;28;20445;-70
2022/08/13 09:34:37;;;;;;;0.00;0.00;;;;;;;;;;5082206;28;20402;-70
2022/08/13 09:37:04;;;;;;;0.00;0.00;;;;;;;;;;5087022;28;20250;-69
2022/08/13 09:39:33;;;;;;;0.00;0.00;;;;;;;;;;5081568;28;20214;-70
2022/08/13 09:42:02;;;;;;;0.00;0.00;;;;;;;;;;5086506;28;20242;-70
2022/08/13 09:44:30;;;;;;;0.00;0.00;;;;;;;;;;5082119;28;20239;-70
2022/08/13 09:46:57;;;;;;;0.00;0.00;;;;;;;;;;5086055;28;20239;-70
2022/08/13 09:49:26;;;;;;;0.00;0.00;;;;;;;;;;5083104;28;20211;-70
2022/08/13 09:51:52;;;;;;;0.00;0.00;;;;;;;;;;5085310;28;20238;-69
2022/08/13 09:54:22;;;;;;;0.00;0.00;;;;;;;;;;5085234;28;20274;-70
2022/08/13 09:56:48;;;;;;;0.00;0.00;;;;;;;;;;5089040;28;20378;-69
2022/08/13 09:59:15;;;;;;;0.00;0.00;;;;;;;;;;5087820;28;20237;-69
2022/08/13 10:01:41;;;;;;;0.00;0.00;;;;;;;;;;5087975;28;20311;-69
2022/08/13 10:04:08;;;;;;;0.00;0.00;;;;;;;;;;5088750;28;20372;-69
2022/08/13 10:06:35;;;;;;;0.00;0.00;;;;;;;;;;5087329;28;20571;-70
2022/08/13 10:09:02;;;;;;;0.00;0.00;;;;;;;;;;5089458;28;20238;-69
2022/08/13 10:11:28;;;;;;;0.00;0.00;;;;;;;;;;5085861;28;20246;-70
2022/08/13 10:13:55;;;;;;;0.00;0.00;;;;;;;;;;5090063;28;20219;-71
2022/08/13 10:16:22;;;;;;;0.00;0.00;;;;;;;;;;5084760;28;20482;-70
2022/08/13 10:18:48;;;;;;;0.00;0.00;;;;;;;;;;5090556;28;20203;-71
2022/08/13 10:21:15;;;;;;;0.00;0.00;;;;;;;;;;5083919;28;20241;-70
2022/08/13 10:23:43;;;;;;;0.00;0.00;;;;;;;;;;5091519;28;20242;-70
2022/08/13 10:26:09;;;;;;;0.00;0.00;;;;;;;;;;5082922;28;20246;-70
2022/08/13 10:28:36;;;;;;;0.03;0.03;;;;;;;;;;5092546;28;20204;-69
2022/08/13 10:31:04;;;;;;;0.00;0.00;;;;;;;;;;5081976;28;20238;-69
2022/08/13 10:33:32;;;;;;;0.00;0.00;;;;;;;;;;5091692;28;20203;-69
2022/08/13 10:35:59;;;;;;;0.00;0.00;;;;;;;;;;5080371;28;20301;-70
2022/08/13 10:38:26;;;;;;;0.00;0.00;;;;;;;;;;5092088;28;20220;-69
2022/08/13 10:40:54;;;;;;;0.00;0.00;;;;;;;;;;5079589;28;20245;-70
2022/08/13 10:43:21;;;;;;;0.00;0.00;;;;;;;;;;5092857;28;20237;-70
2022/08/13 10:45:47;;;;;;;0.00;0.00;;;;;;;;;;5078973;28;20238;-70
2022/08/13 10:48:14;;;;;;;0.00;0.00;;;;;;;;;;5093553;28;20383;-70
2022/08/13 10:50:41;;;;;;;0.00;0.00;;;;;;;;;;5078176;28;20436;-70
2022/08/13 10:53:07;;;;;;;0.00;0.00;;;;;;;;;;5094151;28;20221;-69
2022/08/13 10:55:35;;;;;;;0.00;0.00;;;;;;;;;;5077286;28;20238;-71
2022/08/13 10:58:03;;;;;;;0.00;0.00;;;;;;;;;;5095074;28;20192;-70
2022/08/13 11:00:30;;;;;;;0.00;0.00;;;;;;;;;;5076370;28;20242;-70
2022/08/13 11:02:57;;;;;;;0.00;0.00;;;;;;;;;;5095503;28;20262;-70
2022/08/13 11:05:25;;;;;;;0.00;0.00;;;;;;;;;;5075464;28;20204;-70
2022/08/13 11:07:54;;;;;;;0.00;0.00;;;;;;;;;;5096498;28;20378;-69
2022/08/13 11:10:21;;;;;;;0.00;0.00;;;;;;;;;;5075325;28;20230;-70
2022/08/13 11:12:51;;;;;;;0.00;0.00;;;;;;;;;;5096501;28;20192;-70
2022/08/13 11:15:20;;;;;;;0.00;0.00;;;;;;;;;;5075020;28;20397;-70
2022/08/13 11:17:49;;;;;;;0.00;0.00;;;;;;;;;;5096632;28;20191;-70
2022/08/13 11:20:19;;;;;;;0.00;0.00;;;;;;;;;;5074554;28;20227;-70
2022/08/13 11:22:47;;;;;;;0.00;0.00;;;;;;;;;;5097020;28;20346;-69
2022/08/13 11:25:13;;;;;;;0.00;0.00;;;;;;;;;;5074136;28;20495;-70
2022/08/13 11:27:40;;;;;;;0.00;0.00;;;;;;;;;;5097289;28;20198;-70
2022/08/13 11:30:07;;;;;;;0.00;0.00;;;;;;;;;;5074291;28;20395;-70
2022/08/13 11:32:34;;;;;;;0.00;0.00;;;;;;;;;;5053974;28;1277354;-70
2022/08/13 11:35:01;;;;;;;0.00;0.00;;;;;;;;;;5084149;28;20532;-69
2022/08/13 11:37:27;;;;;;;0.00;0.00;;;;;;;;;;5089312;28;20242;-69
2022/08/13 11:39:53;;;;;;;0.00;0.00;;;;;;;;;;5083892;28;20203;-68
2022/08/13 11:42:20;;;;;;;0.00;0.00;;;;;;;;;;5089093;28;20245;-70
2022/08/13 11:44:46;;;;;;;0.00;0.00;;;;;;;;;;5083875;28;20231;-70
2022/08/13 11:47:13;;;;;;;0.00;0.00;;;;;;;;;;5089036;28;20273;-70
2022/08/13 11:49:40;;;;;;;0.00;0.00;;;;;;;;;;5083344;28;20272;-70
2022/08/13 11:52:07;;;;;;;0.00;0.00;;;;;;;;;;5088848;28;20230;-69
2022/08/13 11:54:34;;;;;;;0.00;0.00;;;;;;;;;;5083807;28;20226;-70
2022/08/13 11:57:00;;;;;;;0.00;0.00;;;;;;;;;;5088310;28;20302;-71
2022/08/13 11:59:27;;;;;;;0.00;0.00;;;;;;;;;;5084081;28;20207;-69
2022/08/13 12:01:54;;;;;;;0.00;0.00;;;;;;;;;;5086749;28;20485;-73
2022/08/13 12:04:20;;;;;;;0.00;0.00;;;;;;;;;;5085987;28;20241;-75
2022/08/13 12:06:51;;;;;;;0.00;0.00;;;;;;;;;;5086289;28;20250;-76
2022/08/13 12:09:18;;;;;;;0.00;0.00;;;;;;;;;;5084983;28;20207;-73
2022/08/13 12:11:45;;;;;;;0.00;0.00;;;;;;;;;;5085772;28;20436;-74
2022/08/13 12:14:11;;;;;;;0.00;0.00;;;;;;;;;;5085561;28;20207;-72
2022/08/13 12:16:37;;;;;;;0.00;0.00;;;;;;;;;;5083995;28;20375;-72
2022/08/13 12:19:04;;;;;;;0.00;0.00;;;;;;;;;;5086503;28;20205;-72
2022/08/13 12:21:32;;;;;;;0.00;0.00;;;;;;;;;;5083690;28;20238;-73
2022/08/13 12:24:02;;;;;;;0.00;0.00;;;;;;;;;;5087157;28;20241;-72
2022/08/13 12:26:29;;;;;;;0.00;0.00;;;;;;;;;;5083167;28;20246;-75
2022/08/13 12:28:55;;;;;;;0.00;0.00;;;;;;;;;;5087371;28;20210;-73
2022/08/13 12:31:21;;;;;;;0.00;0.00;;;;;;;;;;5080798;28;20234;-72
2022/08/13 12:33:48;;;;;;;0.00;0.00;;;;;;;;;;5088292;28;20210;-73
2022/08/13 12:36:14;;;;;;;0.00;0.00;;;;;;;;;;5081161;28;20298;-74
2022/08/13 12:38:41;;;;;;;0.00;0.00;;;;;;;;;;5088958;28;20237;-74
2022/08/13 12:41:08;;;;;;;0.00;0.00;;;;;;;;;;5079941;28;20301;-72
2022/08/13 12:43:35;;;;;;;0.00;0.00;;;;;;;;;;5089481;28;20239;-71
2022/08/13 12:46:01;;;;;;;0.00;0.00;;;;;;;;;;5079357;28;20238;-73
2022/08/13 12:48:29;;;;;;;0.00;0.00;;;;;;;;;;5090663;28;20209;-73
2022/08/13 12:50:55;;;;;;;0.00;0.00;;;;;;;;;;5078215;28;20590;-77
2022/08/13 12:53:22;;;;;;;0.00;0.00;;;;;;;;;;5091208;28;20275;-80
2022/08/13 12:55:48;;;;;;;0.00;0.00;;;;;;;;;;5077102;28;20421;-73
2022/08/13 12:58:17;;;;;;;0.00;0.00;;;;;;;;;;5092455;28;20231;-69
2022/08/13 13:00:44;;;;;;;0.00;0.00;;;;;;;;;;5077166;28;20242;-69
2022/08/13 13:03:10;;;;;;;0.00;0.00;;;;;;;;;;5092756;28;20234;-70
2022/08/13 13:05:37;;;;;;;0.00;0.00;;;;;;;;;;5076124;28;20358;-69
2022/08/13 13:08:13;;;;;;;0.00;0.00;;;;;;;;;;5093766;28;20235;-69
2022/08/13 13:10:40;;;;;;;0.00;0.00;;;;;;;;;;5076141;28;20261;-69
2022/08/13 13:13:07;;;;;;;0.00;0.00;;;;;;;;;;5093261;28;20389;-69
2022/08/13 13:15:34;;;;;;;0.00;0.00;;;;;;;;;;5075756;28;20284;-69
2022/08/13 13:18:01;;;;;;;0.00;0.00;;;;;;;;;;5093844;28;20191;-70
2022/08/13 13:20:27;;;;;;;0.00;0.00;;;;;;;;;;5074881;28;20489;-69
2022/08/13 13:22:54;;;;;;;0.00;0.00;;;;;;;;;;5094550;28;20210;-69
2022/08/13 13:25:20;;;;;;;0.00;0.00;;;;;;;;;;5073894;28;20234;-69
2022/08/13 13:27:48;;;;;;;0.00;0.00;;;;;;;;;;5095628;28;20555;-69
2022/08/13 13:30:16;;;;;;;0.00;0.00;;;;;;;;;;5072950;28;20212;-68
2022/08/13 13:32:46;;;;;;;0.03;0.03;;;;;;;;;;5096021;28;20542;-69
2022/08/13 13:35:13;;;;;;;0.00;0.00;;;;;;;;;;5073097;28;20207;-74
2022/08/13 13:37:43;;;;;;;0.00;0.00;;;;;;;;;;5096562;28;20544;-72
2022/08/13 13:40:10;;;;;;;0.00;0.00;;;;;;;;;;5072731;28;20509;-70
2022/08/13 13:42:37;;;;;;;0.00;0.00;;;;;;;;;;5096717;28;20487;-71
2022/08/13 13:45:03;;;;;;;0.00;0.00;;;;;;;;;;5082239;28;20270;-73
2022/08/13 13:47:32;;;;;;;0.00;0.00;;;;;;;;;;5087357;28;20249;-73
2022/08/13 13:49:59;;;;;;;0.00;0.00;;;;;;;;;;5082139;28;20219;-73
2022/08/13 13:52:26;;;;;;;0.00;0.00;;;;;;;;;;5087137;28;20235;-74
2022/08/13 13:54:53;;;;;;;0.00;0.00;;;;;;;;;;5082324;28;20342;-74
2022/08/13 13:57:19;;;;;;;0.00;0.00;;;;;;;;;;5087111;28;20264;-72
2022/08/13 13:59:46;;;;;;;0.00;0.00;;;;;;;;;;5081794;28;20245;-81
2022/08/13 14:02:13;;;;;;;0.00;0.00;;;;;;;;;;5069912;28;20615;-79
2022/08/13 14:04:40;;;;;;;0.00;0.00;;;;;;;;;;5081822;28;20293;-75
2022/08/13 14:07:08;;;;;;;0.00;0.00;;;;;;;;;;5086886;28;20245;-70
2022/08/13 14:09:40;;;;;;;0.00;0.00;;;;;;;;;;5081898;28;20455;-69
2022/08/13 14:12:07;;;;;;;0.00;0.00;;;;;;;;;;5086901;28;20235;-69
2022/08/13 14:14:34;;;;;;;0.00;0.00;;;;;;;;;;5081512;28;20211;-73
2022/08/13 14:17:03;;;;;;;0.00;0.00;;;;;;;;;;5086501;28;20318;-73
2022/08/13 14:19:30;;;;;;;0.00;0.00;;;;;;;;;;5081662;28;20218;-74
2022/08/13 14:21:57;;;;;;;0.00;0.00;;;;;;;;;;5085607;28;20539;-75
2022/08/13 14:24:26;;;;;;;0.00;0.00;;;;;;;;;;5082575;28;20447;-76
2022/08/13 14:26:53;;;;;;;0.00;0.00;;;;;;;;;;5085311;28;20239;-75
2022/08/13 14:29:22;;;;;;;0.00;0.00;;;;;;;;;;5083331;28;20203;-74
2022/08/13 14:31:48;;;;;;;0.00;0.00;;;;;;;;;;5084493;28;20246;-76
2022/08/13 14:34:14;;;;;;;0.00;0.00;;;;;;;;;;5083372;28;20274;-75
2022/08/13 14:36:41;;;;;;;0.00;0.00;;;;;;;;;;5083632;28;20489;-76
2022/08/13 14:39:07;;;;;;;0.00;0.00;;;;;;;;;;5084367;28;20235;-73
2022/08/13 14:41:39;;;;;;;0.00;0.00;;;;;;;;;;5086516;28;20250;-73
2022/08/13 14:44:05;;;;;;;0.00;0.00;;;;;;;;;;5088628;28;20233;-73
2022/08/13 14:46:32;;;;;;;0.00;0.00;;;;;;;;;;5085949;28;20242;-73
2022/08/13 14:48:58;;;;;;;0.00;0.00;;;;;;;;;;5088991;28;20501;-70
2022/08/13 14:51:25;;;;;;;0.00;0.00;;;;;;;;;;5085051;28;20234;-70
2022/08/13 14:53:52;;;;;;;0.00;0.00;;;;;;;;;;5090037;28;20271;-69
2022/08/13 14:56:19;;;;;;;0.00;0.00;;;;;;;;;;5084248;28;20242;-70
2022/08/13 14:58:49;;;;;;;0.00;0.00;;;;;;;;;;5090591;28;20250;-69
2022/08/13 15:01:16;;;;;;;0.00;0.00;;;;;;;;;;5083817;28;20254;-70
2022/08/13 15:03:44;;;;;;;0.00;0.00;;;;;;;;;;5090833;28;20264;-69